sensor_id;sensor_type;location;lat;lon;timestamp;pressure;altitude;pressure_sealevel;temperature;humidity
49393;BME280;35268;42.642;23.308;2023-11-19T00:00:39;93868.19;;;1.53;72.65
49393;BME280;35268;42.642;23.308;2023-11-19T00:03:05;93875.28;;;1.53;72.60
49393;BME280;35268;42.642;23.308;2023-11-19T00:05:31;93862.66;;;1.55;72.45
49393;BME280;35268;42.642;23.308;2023-11-19T00:07:56;93842.19;;;1.57;72.09
49393;BME280;35268;42.642;23.308;2023-11-19T00:10:22;93860.06;;;1.60;72.45
49393;BME280;35268;42.642;23.308;2023-11-19T00:12:48;93864.28;;;1.61;72.13
49393;BME280;35268;42.642;23.308;2023-11-19T00:15:15;93858.47;;;1.59;72.01
49393;BME280;35268;42.642;23.308;2023-11-19T00:17:46;93857.72;;;1.64;72.32
49393;BME280;35268;42.642;23.308;2023-11-19T00:20:18;93877.13;;;1.63;71.49
49393;BME280;35268;42.642;23.308;2023-11-19T00:22:44;93871.38;;;1.66;71.71
49393;BME280;35268;42.642;23.308;2023-11-19T00:25:13;93858.50;;;1.64;71.79
49393;BME280;35268;42.642;23.308;2023-11-19T00:27:39;93864.78;;;1.58;71.88
49393;BME280;35268;42.642;23.308;2023-11-19T00:30:05;93872.41;;;1.59;71.65
49393;BME280;35268;42.642;23.308;2023-11-19T00:32:34;93868.47;;;1.57;71.73
49393;BME280;35268;42.642;23.308;2023-11-19T00:35:01;93873.97;;;1.60;71.84
49393;BME280;35268;42.642;23.308;2023-11-19T00:37:28;93851.38;;;1.59;72.30
49393;BME280;35268;42.642;23.308;2023-11-19T00:39:53;93869.50;;;1.56;72.12
49393;BME280;35268;42.642;23.308;2023-11-19T00:42:20;93873.72;;;1.57;72.25
49393;BME280;35268;42.642;23.308;2023-11-19T00:44:46;93866.88;;;1.56;72.37
49393;BME280;35268;42.642;23.308;2023-11-19T00:47:11;93890.22;;;1.52;72.31
49393;BME280;35268;42.642;23.308;2023-11-19T00:49:37;93872.13;;;1.56;72.53
49393;BME280;35268;42.642;23.308;2023-11-19T00:52:02;93874.50;;;1.57;72.58
49393;BME280;35268;42.642;23.308;2023-11-19T00:54:28;93873.19;;;1.60;72.58
49393;BME280;35268;42.642;23.308;2023-11-19T00:56:53;93870.06;;;1.63;72.01
49393;BME280;35268;42.642;23.308;2023-11-19T00:59:19;93886.34;;;1.65;72.26
49393;BME280;35268;42.642;23.308;2023-11-19T01:01:45;93863.75;;;1.59;72.07
49393;BME280;35268;42.642;23.308;2023-11-19T01:04:10;93889.47;;;1.57;72.53
49393;BME280;35268;42.642;23.308;2023-11-19T01:06:36;93878.44;;;1.55;72.52
49393;BME280;35268;42.642;23.308;2023-11-19T01:09:02;93891.03;;;1.58;72.38
49393;BME280;35268;42.642;23.308;2023-11-19T01:11:27;93882.63;;;1.56;72.28
49393;BME280;35268;42.642;23.308;2023-11-19T01:13:53;93887.38;;;1.59;71.93
49393;BME280;35268;42.642;23.308;2023-11-19T01:16:19;93886.03;;;1.56;72.02
49393;BME280;35268;42.642;23.308;2023-11-19T01:18:47;93871.63;;;1.59;72.33
49393;BME280;35268;42.642;23.308;2023-11-19T01:21:13;93872.13;;;1.56;72.35
49393;BME280;35268;42.642;23.308;2023-11-19T01:23:40;93882.09;;;1.54;72.26
49393;BME280;35268;42.642;23.308;2023-11-19T01:26:08;93878.44;;;1.55;72.07
49393;BME280;35268;42.642;23.308;2023-11-19T01:28:35;93884.72;;;1.54;72.30
49393;BME280;35268;42.642;23.308;2023-11-19T01:31:01;93873.94;;;1.50;71.81
49393;BME280;35268;42.642;23.308;2023-11-19T01:33:26;93879.72;;;1.52;71.99
49393;BME280;35268;42.642;23.308;2023-11-19T01:35:53;93885.75;;;1.48;72.00
49393;BME280;35268;42.642;23.308;2023-11-19T01:38:18;93891.28;;;1.51;72.35
49393;BME280;35268;42.642;23.308;2023-11-19T01:40:44;93894.19;;;1.55;72.67
49393;BME280;35268;42.642;23.308;2023-11-19T01:43:09;93905.69;;;1.44;71.69
49393;BME280;35268;42.642;23.308;2023-11-19T01:45:37;93885.72;;;1.43;71.50
49393;BME280;35268;42.642;23.308;2023-11-19T01:48:04;93876.78;;;1.38;71.99
49393;BME280;35268;42.642;23.308;2023-11-19T01:50:30;93891.19;;;1.31;71.71
49393;BME280;35268;42.642;23.308;2023-11-19T01:52:56;93910.91;;;1.38;71.99
49393;BME280;35268;42.642;23.308;2023-11-19T01:55:27;93897.50;;;1.40;71.58
49393;BME280;35268;42.642;23.308;2023-11-19T01:57:59;93902.47;;;1.31;71.20
49393;BME280;35268;42.642;23.308;2023-11-19T02:00:26;93909.31;;;1.32;71.52
49393;BME280;35268;42.642;23.308;2023-11-19T02:02:52;93903.53;;;1.35;71.15
49393;BME280;35268;42.642;23.308;2023-11-19T02:05:18;93905.91;;;1.37;70.93
49393;BME280;35268;42.642;23.308;2023-11-19T02:07:43;93902.50;;;1.36;70.69
49393;BME280;35268;42.642;23.308;2023-11-19T02:10:09;93887.53;;;1.37;70.60
49393;BME280;35268;42.642;23.308;2023-11-19T02:12:40;93876.50;;;1.40;70.41
49393;BME280;35268;42.642;23.308;2023-11-19T02:15:09;93882.03;;;1.38;70.86
49393;BME280;35268;42.642;23.308;2023-11-19T02:17:35;93866.00;;;1.35;71.05
49393;BME280;35268;42.642;23.308;2023-11-19T02:20:03;93869.09;;;1.27;70.97
49393;BME280;35268;42.642;23.308;2023-11-19T02:22:31;93858.53;;;1.16;71.02
49393;BME280;35268;42.642;23.308;2023-11-19T02:25:00;93883.19;;;1.15;70.94
49393;BME280;35268;42.642;23.308;2023-11-19T02:30:04;93895.78;;;1.13;71.08
49393;BME280;35268;42.642;23.308;2023-11-19T02:32:31;93887.69;;;1.20;70.86
49393;BME280;35268;42.642;23.308;2023-11-19T02:34:56;93895.56;;;1.20;70.92
49393;BME280;35268;42.642;23.308;2023-11-19T02:37:22;93883.25;;;1.20;70.96
49393;BME280;35268;42.642;23.308;2023-11-19T02:39:48;93878.25;;;1.24;70.64
49393;BME280;35268;42.642;23.308;2023-11-19T02:42:13;93872.25;;;1.29;70.33
49393;BME280;35268;42.642;23.308;2023-11-19T02:44:43;93893.03;;;1.35;70.16
49393;BME280;35268;42.642;23.308;2023-11-19T02:47:09;93879.84;;;1.30;70.34
49393;BME280;35268;42.642;23.308;2023-11-19T02:49:34;93883.06;;;1.32;70.32
49393;BME280;35268;42.642;23.308;2023-11-19T02:52:02;93883.00;;;1.27;70.45
49393;BME280;35268;42.642;23.308;2023-11-19T02:54:31;93886.41;;;1.28;70.48
49393;BME280;35268;42.642;23.308;2023-11-19T02:57:00;93874.88;;;1.29;70.24
49393;BME280;35268;42.642;23.308;2023-11-19T02:59:27;93872.75;;;1.26;70.27
49393;BME280;35268;42.642;23.308;2023-11-19T03:01:53;93872.25;;;1.29;70.24
49393;BME280;35268;42.642;23.308;2023-11-19T03:04:19;93862.72;;;1.17;70.22
49393;BME280;35268;42.642;23.308;2023-11-19T03:06:48;93880.06;;;1.18;70.46
49393;BME280;35268;42.642;23.308;2023-11-19T03:09:14;93861.41;;;1.15;70.50
49393;BME280;35268;42.642;23.308;2023-11-19T03:11:39;93869.25;;;1.10;71.22
49393;BME280;35268;42.642;23.308;2023-11-19T03:14:05;93891.78;;;1.06;71.00
49393;BME280;35268;42.642;23.308;2023-11-19T03:16:30;93886.53;;;1.06;71.29
49393;BME280;35268;42.642;23.308;2023-11-19T03:18:56;93893.84;;;0.98;71.61
49393;BME280;35268;42.642;23.308;2023-11-19T03:21:28;93877.28;;;0.93;71.85
49393;BME280;35268;42.642;23.308;2023-11-19T03:23:54;93873.09;;;0.92;71.79
49393;BME280;35268;42.642;23.308;2023-11-19T03:26:20;93886.94;;;0.87;71.63
49393;BME280;35268;42.642;23.308;2023-11-19T03:28:47;93894.88;;;0.97;71.54
49393;BME280;35268;42.642;23.308;2023-11-19T03:31:12;93886.47;;;0.95;71.45
49393;BME280;35268;42.642;23.308;2023-11-19T03:33:38;93887.53;;;0.94;71.87
49393;BME280;35268;42.642;23.308;2023-11-19T03:36:03;93880.16;;;0.91;71.76
49393;BME280;35268;42.642;23.308;2023-11-19T03:38:29;93880.41;;;0.90;71.86
49393;BME280;35268;42.642;23.308;2023-11-19T03:40:54;93878.03;;;0.88;71.95
49393;BME280;35268;42.642;23.308;2023-11-19T03:43:20;93910.06;;;0.90;71.66
49393;BME280;35268;42.642;23.308;2023-11-19T03:45:45;93892.00;;;0.94;71.97
49393;BME280;35268;42.642;23.308;2023-11-19T03:48:11;93895.09;;;0.91;71.80
49393;BME280;35268;42.642;23.308;2023-11-19T03:50:37;93901.69;;;0.93;72.13
49393;BME280;35268;42.642;23.308;2023-11-19T03:53:02;93933.69;;;0.90;72.13
49393;BME280;35268;42.642;23.308;2023-11-19T03:55:28;93940.78;;;0.90;72.26
49393;BME280;35268;42.642;23.308;2023-11-19T03:57:54;93911.09;;;0.89;72.14
49393;BME280;35268;42.642;23.308;2023-11-19T04:00:20;93920.81;;;0.89;72.38
49393;BME280;35268;42.642;23.308;2023-11-19T04:02:46;93917.19;;;0.95;71.99
49393;BME280;35268;42.642;23.308;2023-11-19T04:05:12;93928.19;;;0.92;72.23
49393;BME280;35268;42.642;23.308;2023-11-19T04:07:37;93916.41;;;0.94;72.37
49393;BME280;35268;42.642;23.308;2023-11-19T04:10:03;93915.06;;;0.92;72.28
49393;BME280;35268;42.642;23.308;2023-11-19T04:12:29;93921.66;;;0.94;72.32
49393;BME280;35268;42.642;23.308;2023-11-19T04:14:54;93936.84;;;0.92;72.33
49393;BME280;35268;42.642;23.308;2023-11-19T04:17:21;93939.47;;;0.92;72.18
49393;BME280;35268;42.642;23.308;2023-11-19T04:19:48;93938.94;;;0.90;72.18
49393;BME280;35268;42.642;23.308;2023-11-19T04:22:13;93925.28;;;0.93;71.98
49393;BME280;35268;42.642;23.308;2023-11-19T04:24:39;93931.09;;;0.95;72.02
49393;BME280;35268;42.642;23.308;2023-11-19T04:27:06;93929.81;;;0.98;72.22
49393;BME280;35268;42.642;23.308;2023-11-19T04:29:31;93934.25;;;0.97;71.54
49393;BME280;35268;42.642;23.308;2023-11-19T04:31:57;93947.13;;;0.99;71.64
49393;BME280;35268;42.642;23.308;2023-11-19T04:34:23;93962.34;;;0.97;71.82
49393;BME280;35268;42.642;23.308;2023-11-19T04:36:49;93940.31;;;0.98;71.43
49393;BME280;35268;42.642;23.308;2023-11-19T04:39:14;93956.34;;;1.02;71.46
49393;BME280;35268;42.642;23.308;2023-11-19T04:41:51;93939.00;;;1.00;71.44
49393;BME280;35268;42.642;23.308;2023-11-19T04:44:20;93953.97;;;1.00;71.23
49393;BME280;35268;42.642;23.308;2023-11-19T04:46:46;93952.13;;;1.00;70.80
49393;BME280;35268;42.642;23.308;2023-11-19T04:49:12;93941.88;;;0.99;70.83
49393;BME280;35268;42.642;23.308;2023-11-19T04:51:42;93941.13;;;1.04;70.88
49393;BME280;35268;42.642;23.308;2023-11-19T04:54:09;93943.25;;;1.07;70.74
49393;BME280;35268;42.642;23.308;2023-11-19T04:56:35;93945.13;;;1.11;69.90
49393;BME280;35268;42.642;23.308;2023-11-19T04:59:02;93951.69;;;1.09;69.72
49393;BME280;35268;42.642;23.308;2023-11-19T05:01:28;93939.88;;;1.11;69.76
49393;BME280;35268;42.642;23.308;2023-11-19T05:03:53;93956.72;;;1.15;69.53
49393;BME280;35268;42.642;23.308;2023-11-19T05:06:18;93962.19;;;1.14;69.73
49393;BME280;35268;42.642;23.308;2023-11-19T05:08:44;93982.66;;;1.12;69.51
49393;BME280;35268;42.642;23.308;2023-11-19T05:11:10;93981.09;;;1.11;69.43
49393;BME280;35268;42.642;23.308;2023-11-19T05:13:37;94012.00;;;1.04;69.74
49393;BME280;35268;42.642;23.308;2023-11-19T05:16:03;93991.28;;;1.02;69.81
49393;BME280;35268;42.642;23.308;2023-11-19T05:18:29;93984.22;;;1.08;70.15
49393;BME280;35268;42.642;23.308;2023-11-19T05:20:54;93986.34;;;1.11;69.88
49393;BME280;35268;42.642;23.308;2023-11-19T05:23:19;93984.22;;;1.08;69.60
49393;BME280;35268;42.642;23.308;2023-11-19T05:25:45;93986.84;;;1.08;69.59
49393;BME280;35268;42.642;23.308;2023-11-19T05:28:11;93977.88;;;1.04;69.95
49393;BME280;35268;42.642;23.308;2023-11-19T05:30:36;93966.84;;;1.02;70.13
49393;BME280;35268;42.642;23.308;2023-11-19T05:33:02;93975.78;;;1.06;70.06
49393;BME280;35268;42.642;23.308;2023-11-19T05:35:27;93989.13;;;0.99;70.25
49393;BME280;35268;42.642;23.308;2023-11-19T05:37:53;93986.03;;;1.02;70.34
49393;BME280;35268;42.642;23.308;2023-11-19T05:40:18;93992.28;;;1.01;70.42
49393;BME280;35268;42.642;23.308;2023-11-19T05:42:45;93997.06;;;1.04;70.74
49393;BME280;35268;42.642;23.308;2023-11-19T05:45:12;93989.72;;;1.06;70.94
49393;BME280;35268;42.642;23.308;2023-11-19T05:47:37;93999.72;;;1.09;70.31
49393;BME280;35268;42.642;23.308;2023-11-19T05:50:03;93996.25;;;1.04;70.07
49393;BME280;35268;42.642;23.308;2023-11-19T05:52:31;94004.41;;;1.02;70.33
49393;BME280;35268;42.642;23.308;2023-11-19T05:55:00;93978.41;;;1.06;70.23
49393;BME280;35268;42.642;23.308;2023-11-19T05:57:29;94007.56;;;1.04;70.14
49393;BME280;35268;42.642;23.308;2023-11-19T05:59:54;93991.75;;;0.99;70.57
49393;BME280;35268;42.642;23.308;2023-11-19T06:02:20;93978.34;;;0.95;70.75
49393;BME280;35268;42.642;23.308;2023-11-19T06:04:45;93983.88;;;0.99;70.82
49393;BME280;35268;42.642;23.308;2023-11-19T06:07:13;94003.09;;;1.05;70.43
49393;BME280;35268;42.642;23.308;2023-11-19T06:09:39;94007.28;;;1.06;70.49
49393;BME280;35268;42.642;23.308;2023-11-19T06:12:05;94007.28;;;1.06;70.41
49393;BME280;35268;42.642;23.308;2023-11-19T06:14:32;94019.88;;;1.04;70.43
49393;BME280;35268;42.642;23.308;2023-11-19T06:16:58;94003.09;;;1.05;70.77
49393;BME280;35268;42.642;23.308;2023-11-19T06:19:23;94018.78;;;0.99;70.44
49393;BME280;35268;42.642;23.308;2023-11-19T06:21:50;94004.41;;;1.02;70.72
49393;BME280;35268;42.642;23.308;2023-11-19T06:24:16;94031.13;;;0.99;70.87
49393;BME280;35268;42.642;23.308;2023-11-19T06:26:41;94013.81;;;0.98;70.86
49393;BME280;35268;42.642;23.308;2023-11-19T06:29:06;94021.63;;;0.93;71.50
49393;BME280;35268;42.642;23.308;2023-11-19T06:31:32;94021.31;;;0.89;71.15
49393;BME280;35268;42.642;23.308;2023-11-19T06:33:57;94043.84;;;0.85;71.23
49393;BME280;35268;42.642;23.308;2023-11-19T06:36:23;93988.00;;;0.90;71.18
49393;BME280;35268;42.642;23.308;2023-11-19T06:38:48;94005.53;;;0.84;71.38
49393;BME280;35268;42.642;23.308;2023-11-19T06:41:13;94011.13;;;0.93;71.43
49393;BME280;35268;42.642;23.308;2023-11-19T06:43:39;94000.88;;;0.91;71.15
49393;BME280;35268;42.642;23.308;2023-11-19T06:46:04;94012.66;;;0.89;70.95
49393;BME280;35268;42.642;23.308;2023-11-19T06:48:34;93999.44;;;0.78;71.38
49393;BME280;35268;42.642;23.308;2023-11-19T06:51:00;94006.78;;;0.76;71.28
49393;BME280;35268;42.642;23.308;2023-11-19T06:53:25;94003.91;;;0.78;71.33
49393;BME280;35268;42.642;23.308;2023-11-19T06:55:53;93999.00;;;0.87;71.31
49393;BME280;35268;42.642;23.308;2023-11-19T06:58:19;94022.84;;;0.85;70.90
49393;BME280;35268;42.642;23.308;2023-11-19T07:00:44;94015.81;;;0.91;71.02
49393;BME280;35268;42.642;23.308;2023-11-19T07:03:11;94017.16;;;0.93;70.75
49393;BME280;35268;42.642;23.308;2023-11-19T07:05:36;94049.16;;;0.90;70.30
49393;BME280;35268;42.642;23.308;2023-11-19T07:08:07;94018.97;;;0.88;70.30
49393;BME280;35268;42.642;23.308;2023-11-19T07:10:33;94024.75;;;0.90;70.49
49393;BME280;35268;42.642;23.308;2023-11-19T07:12:59;94034.84;;;0.76;70.63
49393;BME280;35268;42.642;23.308;2023-11-19T07:15:24;94027.75;;;0.76;70.58
49393;BME280;35268;42.642;23.308;2023-11-19T07:17:50;94021.19;;;0.74;70.95
49393;BME280;35268;42.642;23.308;2023-11-19T07:20:15;94026.97;;;0.76;71.13
49393;BME280;35268;42.642;23.308;2023-11-19T07:22:44;94030.16;;;0.78;70.42
49393;BME280;35268;42.642;23.308;2023-11-19T07:25:15;94026.75;;;0.77;70.62
49393;BME280;35268;42.642;23.308;2023-11-19T07:27:40;94039.03;;;0.77;69.96
49393;BME280;35268;42.642;23.308;2023-11-19T07:30:06;94049.00;;;0.75;70.10
49393;BME280;35268;42.642;23.308;2023-11-19T07:32:34;94050.63;;;0.81;70.17
49393;BME280;35268;42.642;23.308;2023-11-19T07:35:00;94079.56;;;0.86;70.41
49393;BME280;35268;42.642;23.308;2023-11-19T07:37:26;94069.66;;;0.93;70.03
49393;BME280;35268;42.642;23.308;2023-11-19T07:39:51;94098.03;;;0.96;69.35
49393;BME280;35268;42.642;23.308;2023-11-19T07:42:16;94070.63;;;0.87;69.63
49393;BME280;35268;42.642;23.308;2023-11-19T07:44:43;94067.97;;;0.82;69.70
49393;BME280;35268;42.642;23.308;2023-11-19T07:47:09;94077.41;;;0.83;69.81
49393;BME280;35268;42.642;23.308;2023-11-19T07:49:34;94076.44;;;0.89;69.70
49393;BME280;35268;42.642;23.308;2023-11-19T07:52:00;94065.91;;;0.84;69.08
49393;BME280;35268;42.642;23.308;2023-11-19T07:54:25;94110.53;;;0.89;69.24
49393;BME280;35268;42.642;23.308;2023-11-19T07:56:51;94076.63;;;0.83;68.42
49393;BME280;35268;42.642;23.308;2023-11-19T07:59:16;94090.50;;;0.78;68.64
49393;BME280;35268;42.642;23.308;2023-11-19T08:01:42;94085.25;;;0.78;68.97
49393;BME280;35268;42.642;23.308;2023-11-19T08:04:07;94070.06;;;0.80;68.96
49393;BME280;35268;42.642;23.308;2023-11-19T08:06:32;94114.69;;;0.85;69.06
49393;BME280;35268;42.642;23.308;2023-11-19T08:08:58;94117.03;;;0.82;69.19
49393;BME280;35268;42.642;23.308;2023-11-19T08:11:24;94084.16;;;0.74;68.93
49393;BME280;35268;42.642;23.308;2023-11-19T08:13:50;94097.59;;;0.77;68.92
49393;BME280;35268;42.642;23.308;2023-11-19T08:16:15;94117.75;;;0.77;68.79
49393;BME280;35268;42.642;23.308;2023-11-19T08:18:43;94091.47;;;0.72;68.72
49393;BME280;35268;42.642;23.308;2023-11-19T08:21:09;94107.78;;;0.74;69.29
49393;BME280;35268;42.642;23.308;2023-11-19T08:23:36;94098.25;;;0.68;69.77
49393;BME280;35268;42.642;23.308;2023-11-19T08:26:01;94097.28;;;0.74;69.55
49393;BME280;35268;42.642;23.308;2023-11-19T08:28:26;94095.78;;;0.83;69.65
49393;BME280;35268;42.642;23.308;2023-11-19T08:30:53;94092.63;;;0.81;69.42
49393;BME280;35268;42.642;23.308;2023-11-19T08:33:18;94100.00;;;0.84;69.84
49393;BME280;35268;42.642;23.308;2023-11-19T08:35:43;94106.38;;;0.93;69.70
49393;BME280;35268;42.642;23.308;2023-11-19T08:38:10;94093.56;;;0.97;69.33
49393;BME280;35268;42.642;23.308;2023-11-19T08:40:35;94094.19;;;1.04;68.73
49393;BME280;35268;42.642;23.308;2023-11-19T08:43:01;94127.56;;;1.09;69.03
49393;BME280;35268;42.642;23.308;2023-11-19T08:45:26;94106.31;;;1.10;68.28
49393;BME280;35268;42.642;23.308;2023-11-19T08:47:52;94092.69;;;1.13;68.55
49393;BME280;35268;42.642;23.308;2023-11-19T08:50:17;94096.19;;;1.24;68.29
49393;BME280;35268;42.642;23.308;2023-11-19T08:52:42;94099.88;;;1.23;68.38
49393;BME280;35268;42.642;23.308;2023-11-19T08:55:08;94087.28;;;1.25;68.03
49393;BME280;35268;42.642;23.308;2023-11-19T08:57:35;94107.25;;;1.26;67.82
49393;BME280;35268;42.642;23.308;2023-11-19T09:00:01;94104.34;;;1.23;67.90
49393;BME280;35268;42.642;23.308;2023-11-19T09:02:28;94104.81;;;1.19;67.74
49393;BME280;35268;42.642;23.308;2023-11-19T09:04:53;94088.75;;;1.16;67.40
49393;BME280;35268;42.642;23.308;2023-11-19T09:07:18;94091.34;;;1.11;67.42
49393;BME280;35268;42.642;23.308;2023-11-19T09:09:44;94083.50;;;1.16;67.71
49393;BME280;35268;42.642;23.308;2023-11-19T09:12:09;94073.16;;;1.31;68.52
49393;BME280;35268;42.642;23.308;2023-11-19T09:14:35;94077.19;;;1.44;67.84
49393;BME280;35268;42.642;23.308;2023-11-19T09:17:00;94070.13;;;1.45;67.76
49393;BME280;35268;42.642;23.308;2023-11-19T09:19:25;94062.59;;;1.58;67.81
49393;BME280;35268;42.642;23.308;2023-11-19T09:21:54;94064.34;;;1.80;66.01
49393;BME280;35268;42.642;23.308;2023-11-19T09:24:19;94090.44;;;1.92;65.32
49393;BME280;35268;42.642;23.308;2023-11-19T09:26:45;94063.47;;;1.69;65.36
49393;BME280;35268;42.642;23.308;2023-11-19T09:29:11;94084.31;;;1.81;66.40
49393;BME280;35268;42.642;23.308;2023-11-19T09:31:37;94105.00;;;1.72;65.25
49393;BME280;35268;42.642;23.308;2023-11-19T09:34:03;94095.34;;;1.78;66.06
49393;BME280;35268;42.642;23.308;2023-11-19T09:36:28;94084.31;;;1.81;65.05
49393;BME280;35268;42.642;23.308;2023-11-19T09:38:54;94065.00;;;2.03;65.96
49393;BME280;35268;42.642;23.308;2023-11-19T09:41:19;94073.72;;;2.08;64.36
49393;BME280;35268;42.642;23.308;2023-11-19T09:43:45;94044.25;;;2.06;64.49
49393;BME280;35268;42.642;23.308;2023-11-19T09:46:13;94047.13;;;2.05;65.14
49393;BME280;35268;42.642;23.308;2023-11-19T09:48:40;94047.72;;;2.12;65.18
49393;BME280;35268;42.642;23.308;2023-11-19T09:51:10;94051.66;;;2.14;65.31
49393;BME280;35268;42.642;23.308;2023-11-19T09:53:36;94027.47;;;2.17;66.25
49393;BME280;35268;42.642;23.308;2023-11-19T09:56:05;94004.38;;;2.30;66.00
49393;BME280;35268;42.642;23.308;2023-11-19T09:58:32;94008.09;;;2.44;64.78
49393;BME280;35268;42.642;23.308;2023-11-19T10:00:58;94000.25;;;2.49;64.15
49393;BME280;35268;42.642;23.308;2023-11-19T10:03:25;94017.03;;;2.38;63.78
49393;BME280;35268;42.642;23.308;2023-11-19T10:05:53;94017.28;;;2.26;64.19
49393;BME280;35268;42.642;23.308;2023-11-19T10:08:19;94024.63;;;2.24;64.48
49393;BME280;35268;42.642;23.308;2023-11-19T10:10:45;94009.88;;;2.18;64.60
49393;BME280;35268;42.642;23.308;2023-11-19T10:13:10;94009.59;;;2.19;64.61
49393;BME280;35268;42.642;23.308;2023-11-19T10:15:37;94012.75;;;2.16;64.53
49393;BME280;35268;42.642;23.308;2023-11-19T10:18:03;94004.66;;;2.28;63.95
49393;BME280;35268;42.642;23.308;2023-11-19T10:20:38;94025.41;;;2.30;63.10
49393;BME280;35268;42.642;23.308;2023-11-19T10:23:05;94031.16;;;2.21;63.12
49393;BME280;35268;42.642;23.308;2023-11-19T10:25:33;94019.38;;;2.29;63.55
49393;BME280;35268;42.642;23.308;2023-11-19T10:27:59;94022.31;;;2.43;62.90
49393;BME280;35268;42.642;23.308;2023-11-19T10:30:27;94003.41;;;2.56;63.08
49393;BME280;35268;42.642;23.308;2023-11-19T10:33:10;94007.88;;;2.56;62.05
49393;BME280;35268;42.642;23.308;2023-11-19T10:35:51;94012.31;;;2.40;61.20
49393;BME280;35268;42.642;23.308;2023-11-19T10:38:20;94000.25;;;2.49;60.82
49393;BME280;35268;42.642;23.308;2023-11-19T10:40:46;93999.22;;;2.55;61.30
49393;BME280;35268;42.642;23.308;2023-11-19T10:43:12;94005.78;;;2.53;60.60
49393;BME280;35268;42.642;23.308;2023-11-19T10:45:38;94000.78;;;2.51;60.44
49393;BME280;35268;42.642;23.308;2023-11-19T10:48:05;94017.66;;;2.66;61.37
49393;BME280;35268;42.642;23.308;2023-11-19T10:50:37;93990.34;;;2.87;60.63
49393;BME280;35268;42.642;23.308;2023-11-19T10:53:03;94019.56;;;2.96;60.18
49393;BME280;35268;42.642;23.308;2023-11-19T10:55:31;93995.31;;;2.89;59.49
49393;BME280;35268;42.642;23.308;2023-11-19T10:58:01;93984.03;;;3.04;59.73
49393;BME280;35268;42.642;23.308;2023-11-19T11:00:38;93996.13;;;3.05;59.00
49393;BME280;35268;42.642;23.308;2023-11-19T11:03:10;93995.84;;;3.01;58.78
49393;BME280;35268;42.642;23.308;2023-11-19T11:05:37;93999.28;;;2.96;59.53
49393;BME280;35268;42.642;23.308;2023-11-19T11:08:06;93992.97;;;3.03;59.75
49393;BME280;35268;42.642;23.308;2023-11-19T11:10:34;93981.38;;;2.88;59.11
49393;BME280;35268;42.642;23.308;2023-11-19T11:13:03;93963.72;;;2.99;59.27
49393;BME280;35268;42.642;23.308;2023-11-19T11:15:30;93960.31;;;3.09;59.10
49393;BME280;35268;42.642;23.308;2023-11-19T11:18:01;93964.03;;;3.18;58.67
49393;BME280;35268;42.642;23.308;2023-11-19T11:20:30;93948.72;;;3.30;57.39
49393;BME280;35268;42.642;23.308;2023-11-19T11:29:55;93972.97;;;3.42;57.72
49393;BME280;35268;42.642;23.308;2023-11-19T11:34:51;93966.09;;;3.47;56.88
49393;BME280;35268;42.642;23.308;2023-11-19T11:37:32;93956.91;;;3.44;56.02
49393;BME280;35268;42.642;23.308;2023-11-19T11:39:59;93955.56;;;3.41;56.87
49393;BME280;35268;42.642;23.308;2023-11-19T11:45:04;93926.31;;;3.43;56.88
49393;BME280;35268;42.642;23.308;2023-11-19T11:50:19;93922.09;;;3.52;56.48
49393;BME280;35268;42.642;23.308;2023-11-19T11:58:18;93945.47;;;3.74;56.64
49393;BME280;35268;42.642;23.308;2023-11-19T12:00:47;93940.47;;;3.83;54.99
49393;BME280;35268;42.642;23.308;2023-11-19T12:03:12;93947.78;;;3.96;55.24
49393;BME280;35268;42.642;23.308;2023-11-19T12:05:40;93938.50;;;4.14;55.21
49393;BME280;35268;42.642;23.308;2023-11-19T12:08:07;93939.50;;;4.29;55.18
49393;BME280;35268;42.642;23.308;2023-11-19T12:10:51;93926.50;;;4.37;54.41
49393;BME280;35268;42.642;23.308;2023-11-19T12:13:18;93944.16;;;4.47;53.95
49393;BME280;35268;42.642;23.308;2023-11-19T12:18:32;93938.91;;;4.42;53.10
49393;BME280;35268;42.642;23.308;2023-11-19T12:20:59;93921.00;;;4.34;53.59
49393;BME280;35268;42.642;23.308;2023-11-19T12:23:29;93915.91;;;4.48;52.79
49393;BME280;35268;42.642;23.308;2023-11-19T12:25:55;93920.34;;;4.57;52.59
49393;BME280;35268;42.642;23.308;2023-11-19T12:28:21;93909.44;;;4.69;53.02
49393;BME280;35268;42.642;23.308;2023-11-19T12:30:49;93900.22;;;4.67;51.40
49393;BME280;35268;42.642;23.308;2023-11-19T12:33:14;93909.09;;;4.81;52.31
49393;BME280;35268;42.642;23.308;2023-11-19T12:35:43;93890.03;;;4.89;51.62
49393;BME280;35268;42.642;23.308;2023-11-19T12:38:21;93901.56;;;4.98;50.16
49393;BME280;35268;42.642;23.308;2023-11-19T12:40:47;93880.06;;;5.10;50.22
49393;BME280;35268;42.642;23.308;2023-11-19T12:43:27;93899.66;;;5.04;49.69
49393;BME280;35268;42.642;23.308;2023-11-19T12:45:52;93894.63;;;5.08;50.74
49393;BME280;35268;42.642;23.308;2023-11-19T12:48:18;93893.53;;;5.09;50.89
49393;BME280;35268;42.642;23.308;2023-11-19T12:53:23;93886.63;;;5.13;49.86
49393;BME280;35268;42.642;23.308;2023-11-19T12:55:50;93881.97;;;5.05;49.69
49393;BME280;35268;42.642;23.308;2023-11-19T12:58:31;93890.41;;;5.07;50.82
49393;BME280;35268;42.642;23.308;2023-11-19T13:01:05;93875.63;;;5.06;49.88
49393;BME280;35268;42.642;23.308;2023-11-19T13:03:32;93884.75;;;5.18;50.85
49393;BME280;35268;42.642;23.308;2023-11-19T13:06:08;93871.81;;;5.17;48.71
49393;BME280;35268;42.642;23.308;2023-11-19T13:08:41;93872.63;;;5.17;49.20
49393;BME280;35268;42.642;23.308;2023-11-19T13:11:08;93871.44;;;5.29;49.01
49393;BME280;35268;42.642;23.308;2023-11-19T13:13:57;93884.63;;;5.34;47.80
49393;BME280;35268;42.642;23.308;2023-11-19T13:16:23;93865.28;;;5.38;47.56
49393;BME280;35268;42.642;23.308;2023-11-19T13:18:49;93887.34;;;5.53;47.09
49393;BME280;35268;42.642;23.308;2023-11-19T13:21:15;93861.75;;;5.48;46.39
49393;BME280;35268;42.642;23.308;2023-11-19T13:23:40;93867.47;;;5.55;47.67
49393;BME280;35268;42.642;23.308;2023-11-19T13:26:06;93855.50;;;5.63;48.36